createdAt,value
2022-09-23T00:02:47.687Z,75.24
2022-09-23T00:05:38.040Z,75.44
2022-09-23T00:08:25.593Z,74.95
2022-09-23T00:14:21.642Z,75.22
2022-09-23T00:17:08.664Z,75.35
2022-09-23T00:19:56.150Z,74.97
2022-09-23T00:22:45.557Z,74.68
2022-09-23T00:25:32.581Z,75.10
2022-09-23T00:28:19.729Z,74.63
2022-09-23T00:31:09.405Z,75.34
2022-09-23T00:33:57.812Z,75.43
2022-09-23T00:36:45.110Z,75.21
2022-09-23T00:39:33.668Z,75.84
2022-09-23T00:42:23.274Z,75.64
2022-09-23T00:45:12.478Z,75.91
2022-09-23T00:48:03.407Z,75.86
2022-09-23T00:50:54.466Z,76.07
2022-09-23T00:53:42.704Z,75.74
2022-09-23T00:56:33.834Z,75.74
2022-09-23T00:59:24.546Z,75.74
2022-09-23T01:02:14.314Z,75.80
2022-09-23T01:05:04.710Z,76.07
2022-09-23T01:07:54.053Z,75.65
2022-09-23T01:10:48.742Z,75.10
2022-09-23T01:13:48.981Z,75.22
2022-09-23T01:16:45.501Z,75.43
2022-09-23T01:20:04.281Z,76.03
2022-09-23T01:22:59.672Z,75.76
2022-09-23T01:26:13.739Z,75.97
2022-09-23T01:29:23.865Z,75.29
2022-09-23T01:32:20.808Z,76.11
2022-09-23T01:35:17.096Z,76.21
2022-09-23T01:38:15.721Z,76.20
2022-09-23T01:41:12.967Z,76.17
2022-09-23T01:44:06.986Z,76.46
2022-09-23T01:46:57.601Z,76.93
2022-09-23T01:49:52.857Z,76.21
2022-09-23T01:52:47.289Z,76.50
2022-09-23T01:55:40.353Z,76.66
2022-09-23T01:58:32.207Z,76.08
2022-09-23T02:01:27.421Z,76.66
2022-09-23T02:04:20.423Z,76.52
2022-09-23T02:07:16.394Z,76.70
2022-09-23T02:10:12.162Z,76.27
2022-09-23T02:13:05.589Z,75.47
2022-09-23T02:15:57.063Z,76.87
2022-09-23T02:18:48.617Z,77.06
2022-09-23T02:21:42.235Z,76.56
2022-09-23T02:24:34.629Z,76.60
2022-09-23T02:27:27.176Z,76.29
2022-09-23T02:30:17.096Z,76.33
2022-09-23T02:33:08.014Z,76.03
2022-09-23T02:36:01.288Z,76.15
2022-09-23T02:38:53.573Z,76.29
2022-09-23T02:41:53.707Z,76.48
2022-09-23T02:44:40.800Z,77.10
2022-09-23T02:47:33.071Z,76.13
2022-09-23T02:50:22.401Z,76.22
2022-09-23T02:53:10.211Z,76.54
2022-09-23T02:55:57.978Z,76.11
2022-09-23T02:58:47.400Z,76.39
2022-09-23T03:01:46.762Z,75.66
2022-09-23T03:04:48.408Z,76.41
2022-09-23T03:07:48.044Z,76.57
2022-09-23T03:10:45.232Z,75.39
2022-09-23T03:13:40.613Z,75.66
2022-09-23T03:16:35.752Z,76.12
2022-09-23T03:19:29.398Z,75.78
2022-09-23T03:22:20.675Z,74.65
2022-09-23T03:25:12.601Z,75.31
2022-09-23T03:28:02.602Z,75.23
2022-09-23T03:30:51.080Z,76.12
2022-09-23T03:33:42.435Z,76.21
2022-09-23T03:36:53.581Z,76.50
2022-09-23T03:39:44.349Z,75.76
2022-09-23T03:42:34.039Z,76.10
2022-09-23T03:45:27.322Z,75.34
2022-09-23T03:48:15.054Z,76.22
2022-09-23T03:51:20.661Z,76.60
2022-09-23T03:54:08.113Z,76.51
2022-09-23T03:56:57.617Z,76.59
2022-09-23T03:59:45.690Z,75.67
2022-09-23T04:02:33.098Z,76.70
2022-09-23T04:05:20.639Z,76.97
2022-09-23T04:08:09.437Z,77.02
2022-09-23T04:11:01.749Z,76.41
2022-09-23T04:13:49.387Z,76.62
2022-09-23T04:16:36.784Z,76.43
2022-09-23T04:19:24.678Z,76.45
2022-09-23T04:22:12.062Z,76.28
2022-09-23T04:25:00.687Z,76.55
2022-09-23T04:27:48.286Z,76.09
2022-09-23T04:30:36.038Z,76.60
2022-09-23T04:33:23.336Z,77.05
2022-09-23T04:36:10.337Z,76.64
2022-09-23T04:38:58.487Z,76.99
2022-09-23T04:41:48.318Z,77.03
2022-09-23T04:44:35.320Z,77.21
2022-09-23T04:47:22.752Z,76.84
2022-09-23T04:50:10.607Z,77.00
2022-09-23T04:52:58.201Z,76.90
2022-09-23T04:55:45.846Z,76.45
2022-09-23T04:58:34.827Z,76.40
2022-09-23T05:01:24.945Z,76.18
2022-09-23T05:04:14.176Z,76.32
2022-09-23T05:07:03.421Z,76.67
2022-09-23T05:09:50.754Z,77.06
2022-09-23T05:12:37.890Z,76.67
2022-09-23T05:15:26.686Z,77.58
2022-09-23T05:18:17.858Z,77.74
2022-09-23T05:21:08.112Z,76.82
2022-09-23T05:23:59.169Z,77.48
2022-09-23T05:26:46.926Z,76.61
2022-09-23T05:29:34.051Z,77.21
2022-09-23T05:32:23.166Z,76.45
2022-09-23T05:35:10.533Z,75.96
2022-09-23T05:37:57.864Z,76.27
2022-09-23T05:40:45.013Z,76.21
2022-09-23T05:43:33.765Z,77.32
2022-09-23T05:46:23.688Z,76.88
2022-09-23T05:49:12.640Z,76.75
2022-09-23T05:52:00.167Z,76.52
2022-09-23T05:54:47.550Z,76.58
2022-09-23T05:57:35.013Z,76.60
2022-09-23T06:00:22.432Z,76.33
2022-09-23T06:03:13.426Z,77.01
2022-09-23T06:06:02.672Z,76.96
2022-09-23T06:08:50.271Z,77.02
2022-09-23T06:11:38.313Z,77.06
2022-09-23T06:14:25.702Z,76.49
2022-09-23T06:17:12.974Z,76.93
2022-09-23T06:20:00.670Z,76.38
2022-09-23T06:22:53.781Z,76.17
2022-09-23T06:25:42.145Z,75.85
2022-09-23T06:28:32.136Z,75.78
2022-09-23T06:31:19.757Z,75.40
2022-09-23T06:34:12.249Z,75.56
2022-09-23T06:37:10.120Z,75.30
2022-09-23T06:40:03.539Z,74.48
2022-09-23T06:42:58.986Z,72.57
2022-09-23T06:45:46.852Z,72.12
2022-09-23T06:48:35.414Z,70.68
2022-09-23T06:51:22.626Z,69.64
2022-09-23T06:54:11.121Z,68.82
2022-09-23T06:57:00.128Z,67.67
2022-09-23T06:59:47.328Z,67.39
2022-09-23T07:02:34.589Z,65.87
2022-09-23T07:05:22.627Z,67.18
2022-09-23T07:08:10.391Z,65.89
2022-09-23T07:10:58.623Z,66.66
2022-09-23T07:13:47.731Z,66.02
2022-09-23T07:16:35.134Z,65.86
2022-09-23T07:19:22.575Z,66.32
2022-09-23T07:22:09.598Z,67.16
2022-09-23T07:24:57.349Z,67.26
2022-09-23T07:27:48.379Z,67.07
2022-09-23T07:30:41.165Z,68.37
2022-09-23T07:33:33.410Z,67.64
2022-09-23T07:36:20.874Z,67.94
2022-09-23T07:39:09.635Z,65.65
2022-09-23T07:41:56.987Z,65.58
2022-09-23T07:44:45.448Z,65.47
2022-09-23T07:47:34.091Z,64.33
2022-09-23T07:50:22.547Z,63.08
2022-09-23T07:53:09.584Z,62.29
2022-09-23T07:55:58.188Z,62.18
2022-09-23T07:58:46.214Z,61.99
2022-09-23T08:01:35.610Z,61.90
2022-09-23T08:04:27.452Z,61.82
2022-09-23T08:07:14.676Z,62.40
2022-09-23T08:10:02.910Z,62.40
2022-09-23T08:12:50.215Z,61.36
2022-09-23T08:15:37.776Z,62.28
2022-09-23T08:18:25.398Z,63.93
2022-09-23T08:21:14.593Z,62.65
2022-09-23T08:24:02.882Z,61.07
2022-09-23T08:26:51.434Z,59.40
2022-09-23T08:29:39.278Z,60.10
2022-09-23T08:32:26.806Z,58.64
2022-09-23T08:35:14.396Z,60.12
2022-09-23T08:38:03.646Z,60.49
2022-09-23T08:40:51.515Z,60.78
2022-09-23T08:43:39.783Z,60.96
2022-09-23T08:46:32.406Z,59.58
2022-09-23T08:49:27.534Z,57.92
2022-09-23T08:52:21.386Z,57.48
2022-09-23T08:55:14.536Z,59.03
2022-09-23T08:58:26.173Z,60.72
2022-09-23T09:01:23.002Z,62.28
2022-09-23T09:04:18.554Z,61.47
2022-09-23T09:10:26.815Z,59.92
2022-09-23T09:13:26.386Z,59.84
2022-09-23T09:16:55.625Z,58.49
2022-09-23T09:19:56.719Z,58.50
2022-09-23T09:22:53.491Z,57.55
2022-09-23T09:25:47.643Z,58.41
2022-09-23T09:28:40.419Z,58.18
2022-09-23T09:31:34.216Z,57.10
2022-09-23T09:34:30.607Z,56.67
2022-09-23T09:37:24.871Z,57.34
2022-09-23T09:40:14.177Z,58.69
2022-09-23T09:43:04.720Z,57.46
2022-09-23T09:46:05.195Z,56.48
2022-09-23T09:48:57.707Z,56.50
2022-09-23T09:51:44.904Z,56.76
2022-09-23T09:54:32.625Z,54.83
2022-09-23T09:57:33.535Z,56.26
2022-09-23T10:00:42.919Z,55.70
2022-09-23T10:03:38.763Z,55.50
2022-09-23T10:06:27.772Z,56.26
2022-09-23T10:09:19.317Z,54.20
2022-09-23T10:12:15.698Z,55.71
2022-09-23T10:15:02.845Z,55.34
2022-09-23T10:17:52.624Z,55.62
2022-09-23T10:20:40.355Z,55.76
2022-09-23T10:23:33.562Z,55.61
2022-09-23T10:26:31.148Z,55.56
2022-09-23T10:29:26.084Z,54.51
2022-09-23T10:32:26.921Z,55.08
2022-09-23T10:35:18.416Z,51.14
2022-09-23T10:38:05.671Z,51.51
2022-09-23T10:41:12.740Z,51.15
2022-09-23T10:44:34.103Z,50.77
2022-09-23T10:47:30.089Z,47.65
2022-09-23T10:50:33.094Z,47.50
2022-09-23T10:53:30.092Z,48.00
2022-09-23T10:56:31.680Z,47.16
2022-09-23T10:59:51.238Z,46.75
2022-09-23T11:02:58.394Z,46.16
2022-09-23T11:05:58.253Z,44.35
2022-09-23T11:09:05.873Z,45.09
2022-09-23T11:12:08.483Z,47.10
2022-09-23T11:15:14.503Z,45.40
2022-09-23T11:18:30.273Z,48.25
2022-09-23T11:21:46.536Z,44.08
2022-09-23T11:25:01.369Z,46.48
2022-09-23T11:28:07.218Z,45.55
2022-09-23T11:31:02.085Z,44.88
2022-09-23T11:34:03.579Z,44.17
2022-09-23T11:36:57.723Z,44.73
2022-09-23T11:39:50.860Z,44.85
2022-09-23T11:42:47.899Z,45.27
2022-09-23T11:45:40.833Z,44.15
2022-09-23T11:48:34.060Z,45.30
2022-09-23T11:51:29.338Z,43.65
2022-09-23T11:54:22.289Z,43.49
2022-09-23T11:57:18.339Z,43.90
2022-09-23T12:00:08.645Z,44.84
2022-09-23T12:03:06.728Z,44.55
2022-09-23T12:06:01.322Z,46.67
2022-09-23T12:08:54.368Z,45.24
2022-09-23T12:11:49.507Z,45.72
2022-09-23T12:14:43.430Z,44.11
2022-09-23T12:17:56.308Z,44.97
2022-09-23T12:20:59.670Z,42.62
2022-09-23T12:24:03.234Z,43.36
2022-09-23T12:26:56.235Z,44.74
2022-09-23T12:29:43.939Z,44.98
2022-09-23T12:32:32.384Z,44.51
2022-09-23T12:35:23.700Z,46.00
2022-09-23T12:38:19.474Z,45.63
2022-09-23T12:41:25.399Z,45.72
2022-09-23T12:44:37.059Z,45.17
2022-09-23T12:47:41.000Z,45.09
2022-09-23T12:50:51.871Z,46.30
2022-09-23T12:53:58.493Z,43.41
2022-09-23T12:57:03.169Z,44.19
2022-09-23T13:00:19.584Z,42.94
2022-09-23T13:03:31.437Z,44.90
2022-09-23T13:06:39.083Z,42.82
2022-09-23T13:09:30.512Z,44.46
2022-09-23T13:12:22.114Z,44.34
2022-09-23T13:15:20.137Z,44.62
2022-09-23T13:19:00.095Z,44.30
2022-09-23T13:22:08.980Z,44.80
2022-09-23T13:25:04.024Z,43.72
2022-09-23T13:27:55.378Z,45.08
2022-09-23T13:30:52.300Z,42.02
2022-09-23T13:33:43.880Z,44.21
2022-09-23T13:36:36.682Z,44.16
2022-09-23T13:39:26.023Z,44.53
2022-09-23T13:42:22.688Z,43.75
2022-09-23T13:45:17.164Z,44.55
2022-09-23T13:48:08.526Z,43.24
2022-09-23T13:50:56.101Z,41.80
2022-09-23T13:53:43.339Z,42.69
2022-09-23T13:56:33.530Z,42.16
2022-09-23T13:59:26.398Z,44.38
2022-09-23T14:02:15.528Z,44.11
2022-09-23T14:05:14.028Z,42.92
2022-09-23T14:08:02.548Z,42.92
2022-09-23T14:10:50.161Z,42.04
2022-09-23T14:13:43.113Z,42.89
2022-09-23T14:16:31.390Z,44.06
2022-09-23T14:19:19.696Z,43.59
2022-09-23T14:22:24.191Z,43.90
2022-09-23T14:25:15.991Z,44.59
2022-09-23T14:28:03.688Z,45.03
2022-09-23T14:30:53.747Z,44.42
2022-09-23T14:33:43.615Z,44.18
2022-09-23T14:36:55.003Z,44.22
2022-09-23T14:39:45.299Z,45.65
2022-09-23T14:42:41.290Z,46.12
2022-09-23T14:45:33.569Z,46.57
2022-09-23T14:48:25.089Z,47.49
2022-09-23T14:51:16.895Z,47.15
2022-09-23T14:54:26.380Z,46.22
2022-09-23T14:57:27.400Z,46.66
2022-09-23T15:00:18.579Z,45.48
2022-09-23T15:03:15.932Z,45.05
2022-09-23T15:06:09.233Z,45.31
2022-09-23T15:08:57.368Z,45.88
2022-09-23T15:11:45.040Z,46.66
2022-09-23T15:14:39.871Z,48.07
2022-09-23T15:17:32.770Z,48.17
2022-09-23T15:20:25.004Z,48.65
2022-09-23T15:23:34.416Z,49.31
2022-09-23T15:26:24.158Z,48.03
2022-09-23T15:29:39.761Z,48.66
2022-09-23T15:32:28.736Z,49.00
2022-09-23T15:35:18.692Z,48.94
2022-09-23T15:38:07.719Z,48.63
2022-09-23T15:40:55.287Z,48.35
2022-09-23T15:43:43.503Z,48.28
2022-09-23T15:46:34.134Z,47.84
2022-09-23T15:49:30.297Z,49.99
2022-09-23T15:52:18.808Z,49.74
2022-09-23T15:55:17.261Z,49.68
2022-09-23T15:58:04.929Z,47.50
2022-09-23T16:00:56.799Z,48.79
2022-09-23T16:03:51.587Z,49.31
2022-09-23T16:06:43.417Z,49.06
2022-09-23T16:09:31.656Z,49.60
2022-09-23T16:12:18.907Z,49.37
2022-09-23T16:15:15.025Z,50.54
2022-09-23T16:18:02.971Z,50.01
2022-09-23T16:20:51.253Z,50.83
2022-09-23T16:23:43.891Z,50.98
2022-09-23T16:26:34.591Z,51.95
2022-09-23T16:29:22.598Z,52.51
2022-09-23T16:32:10.001Z,52.96
2022-09-23T16:34:58.031Z,53.73
2022-09-23T16:37:47.043Z,54.41
2022-09-23T16:40:35.780Z,55.83
2022-09-23T16:43:23.573Z,55.82
2022-09-23T16:46:13.241Z,56.55
2022-09-23T16:49:01.617Z,57.98
2022-09-23T16:51:49.044Z,58.35
2022-09-23T16:54:37.459Z,59.41
2022-09-23T16:57:27.021Z,59.38
2022-09-23T17:00:34.315Z,59.51
2022-09-23T17:03:39.578Z,60.59
2022-09-23T17:06:29.034Z,61.47
2022-09-23T17:09:16.729Z,62.48
2022-09-23T17:12:11.291Z,62.05
2022-09-23T17:15:00.742Z,63.49
2022-09-23T17:17:47.906Z,64.83
2022-09-23T17:20:35.850Z,64.79
2022-09-23T17:23:23.405Z,65.45
2022-09-23T17:26:12.410Z,64.40
2022-09-23T17:29:02.188Z,63.43
2022-09-23T17:31:51.071Z,63.89
2022-09-23T17:34:38.548Z,65.39
2022-09-23T17:37:25.947Z,66.39
2022-09-23T17:40:13.847Z,67.79
2022-09-23T17:43:01.355Z,69.05
2022-09-23T17:45:50.054Z,69.78
2022-09-23T17:48:41.455Z,70.22
2022-09-23T17:51:29.719Z,71.50
2022-09-23T17:54:17.631Z,71.62
2022-09-23T17:57:04.998Z,73.01
2022-09-23T17:59:53.706Z,73.82
2022-09-23T18:02:41.478Z,73.86
2022-09-23T18:05:31.444Z,74.86
2022-09-23T18:08:19.320Z,75.21
2022-09-23T18:11:14.458Z,75.33
2022-09-23T18:14:03.336Z,75.22
2022-09-23T18:16:53.607Z,76.10
2022-09-23T18:19:40.957Z,76.65
2022-09-23T18:22:30.015Z,75.96
2022-09-23T18:25:38.031Z,75.49
2022-09-23T18:28:25.494Z,75.75
2022-09-23T18:31:13.509Z,75.75
2022-09-23T18:34:01.342Z,75.26
2022-09-23T18:36:50.146Z,76.14
2022-09-23T18:39:38.895Z,76.45
2022-09-23T18:42:27.052Z,76.72
2022-09-23T18:45:14.764Z,77.22
2022-09-23T18:48:20.135Z,76.72
2022-09-23T18:51:08.835Z,77.88
2022-09-23T18:53:58.527Z,78.15
2022-09-23T18:56:47.656Z,78.92
2022-09-23T18:59:35.159Z,79.75
2022-09-23T19:02:22.611Z,79.82
2022-09-23T19:05:10.501Z,78.95
2022-09-23T19:07:58.068Z,78.85
2022-09-23T19:10:46.179Z,78.83
2022-09-23T19:13:36.245Z,78.41
2022-09-23T19:16:25.122Z,78.58
2022-09-23T19:19:12.966Z,78.35
2022-09-23T19:22:00.709Z,77.41
2022-09-23T19:24:48.177Z,77.90
2022-09-23T19:27:36.792Z,78.23
2022-09-23T19:30:25.758Z,77.68
2022-09-23T19:33:13.416Z,77.25
2022-09-23T19:36:00.946Z,77.68
2022-09-23T19:38:48.515Z,78.55
2022-09-23T19:41:36.448Z,79.26
2022-09-23T19:44:25.153Z,79.31
2022-09-23T19:47:17.899Z,79.22
2022-09-23T19:50:07.321Z,79.85
2022-09-23T19:52:54.754Z,79.28
2022-09-23T19:55:44.509Z,79.53
2022-09-23T19:58:33.314Z,79.96
2022-09-23T20:01:22.138Z,80.19
2022-09-23T20:04:11.924Z,80.25
2022-09-23T20:06:59.201Z,80.83
2022-09-23T20:09:46.692Z,80.77
2022-09-23T20:12:34.677Z,80.89
2022-09-23T20:15:23.245Z,81.46
2022-09-23T20:18:11.462Z,81.91
2022-09-23T20:21:00.225Z,82.16
2022-09-23T20:23:48.483Z,82.62
2022-09-23T20:26:52.825Z,83.07
2022-09-23T20:29:40.209Z,82.28
2022-09-23T20:32:27.472Z,81.58
2022-09-23T20:35:16.340Z,82.33
2022-09-23T20:38:08.094Z,83.85
2022-09-23T20:40:57.092Z,82.98
2022-09-23T20:43:44.814Z,83.84
2022-09-23T20:46:32.397Z,82.80
2022-09-23T20:49:20.959Z,83.83
2022-09-23T20:52:08.808Z,84.28
2022-09-23T20:54:59.708Z,84.12
2022-09-23T20:57:48.840Z,84.94
2022-09-23T21:00:36.245Z,85.40
2022-09-23T21:03:24.162Z,86.22
2022-09-23T21:06:14.002Z,86.30
2022-09-23T21:09:01.920Z,86.42
2022-09-23T21:11:50.905Z,85.66
2022-09-23T21:14:38.501Z,86.03
2022-09-23T21:17:27.026Z,85.11
2022-09-23T21:20:14.913Z,84.20
2022-09-23T21:23:02.481Z,84.09
2022-09-23T21:25:49.828Z,85.94
2022-09-23T21:28:40.927Z,86.48
2022-09-23T21:31:33.919Z,86.91
2022-09-23T21:34:21.751Z,87.54
2022-09-23T21:37:09.167Z,86.86
2022-09-23T21:40:10.552Z,87.09
2022-09-23T21:42:59.954Z,86.70
2022-09-23T21:45:49.404Z,86.71
2022-09-23T21:48:38.291Z,87.74
2022-09-23T21:51:27.599Z,86.84
2022-09-23T21:54:17.166Z,86.55
2022-09-23T21:57:04.368Z,86.60
2022-09-23T21:59:53.914Z,86.43
2022-09-23T22:02:42.963Z,87.54
2022-09-23T22:05:30.236Z,87.36
2022-09-23T22:08:17.538Z,87.74
2022-09-23T22:11:07.788Z,88.01
2022-09-23T22:13:55.125Z,87.13
2022-09-23T22:16:43.288Z,86.96
2022-09-23T22:19:35.662Z,87.16
2022-09-23T22:22:23.137Z,87.50
2022-09-23T22:25:12.744Z,88.22
2022-09-23T22:28:17.482Z,88.14
2022-09-23T22:31:22.973Z,86.86
2022-09-23T22:34:25.478Z,87.68
2022-09-23T22:37:21.661Z,87.05
2022-09-23T22:40:14.539Z,86.91
2022-09-23T22:43:02.875Z,86.71
2022-09-23T22:45:51.827Z,87.33
2022-09-23T22:48:39.224Z,87.44
2022-09-23T22:51:27.060Z,87.24
2022-09-23T22:54:15.850Z,87.45
2022-09-23T22:57:05.190Z,87.24
2022-09-23T22:59:53.219Z,86.11
2022-09-23T23:02:42.577Z,86.39
2022-09-23T23:05:30.670Z,85.13
2022-09-23T23:08:18.344Z,84.96
2022-09-23T23:11:11.079Z,85.04
2022-09-23T23:14:01.463Z,82.91
2022-09-23T23:16:49.425Z,81.58
2022-09-23T23:19:37.366Z,81.59
2022-09-23T23:22:27.497Z,80.63
2022-09-23T23:25:15.334Z,81.10
2022-09-23T23:28:05.780Z,82.92
2022-09-23T23:30:53.058Z,84.32
2022-09-23T23:33:42.018Z,85.27
2022-09-23T23:36:31.382Z,84.81
2022-09-23T23:39:19.197Z,85.48
2022-09-23T23:42:06.726Z,85.57
2022-09-23T23:44:55.729Z,84.88
2022-09-23T23:47:44.065Z,84.05
2022-09-23T23:50:31.119Z,83.30
2022-09-23T23:53:19.320Z,82.88
2022-09-23T23:56:08.825Z,83.39
2022-09-23T23:58:56.811Z,83.90
